CMA CGM Columba — 2DBC9 — position and weather

sailwx.info

Track history (hours):
 
Tides and Currents Weather Stations Pressure Air Temp Water Temp Dewpoint Dewpoint Depression Visibility Wind Speed Wind Dir Waves Ship Positions

CMA CGM Columba

Last reported at 2016-Feb-12 21:33 UTC. Time now 2016-Feb-12 22:27 UTC.
Position N 37°48' W 122°18'.

Length 363 m; draft 12 m.

Type: Ship (hazmat cat A). MMSI: 235077448.

Date/timePositionNaut miles runAvg speedWind from/ knotsBaromVisibWave heightAir tempDewpointWater temp
2016-Feb-12 21:33N 37°48' W 122°18'1 1.2
2016-Feb-12 20:26N 37°48' W 122°19'0 0.0
2016-Feb-12 19:29N 37°48' W 122°19'0 0.0
2016-Feb-12 18:32N 37°48' W 122°19'0 0.0
2016-Feb-12 17:32N 37°48' W 122°19'0 0.0
2016-Feb-12 16:26N 37°48' W 122°19'0 0.1
2016-Feb-12 15:32N 37°48' W 122°19'0 0.0
2016-Feb-12 14:32N 37°48' W 122°19'0 0.0
2016-Feb-12 13:32N 37°48' W 122°19'0 0.0
2016-Feb-12 12:32N 37°48' W 122°19'0 0.0
2016-Feb-12 11:32N 37°48' W 122°19'0 0.0
2016-Feb-12 10:32N 37°48' W 122°19'0 0.0
2016-Feb-12 09:32N 37°48' W 122°19'0 0.0
2016-Feb-12 08:32N 37°48' W 122°19'0 0.0
2016-Feb-12 07:32N 37°48' W 122°19'0 0.0
2016-Feb-12 06:32N 37°48' W 122°19'0 0.0
2016-Feb-12 05:32N 37°48' W 122°19'0 0.0
2016-Feb-12 04:32N 37°48' W 122°19'0 0.0
2016-Feb-12 03:32N 37°48' W 122°19'0 0.0
2016-Feb-12 02:32N 37°48' W 122°19'0 0.0
2016-Feb-12 01:32N 37°48' W 122°19'0 0.0
2016-Feb-12 00:32N 37°48' W 122°19'0 0.0
2016-Feb-11 23:32N 37°48' W 122°19'0 0.0
2016-Feb-11 22:32N 37°48' W 122°19'0 0.0
2016-Feb-11 21:32N 37°48' W 122°19'0 0.0
2016-Feb-11 20:32N 37°48' W 122°19'0 0.0
2016-Feb-11 19:32N 37°48' W 122°19'0 0.0
2016-Feb-11 18:32N 37°48' W 122°19'0 0.0
2016-Feb-11 17:17N 37°48' W 122°19'0 0.0
2016-Feb-11 16:26N 37°48' W 122°19'0 0.0
2016-Feb-11 15:32N 37°48' W 122°19'0 0.0
2016-Feb-11 14:32N 37°48' W 122°19'0 0.0
2016-Feb-11 13:32N 37°48' W 122°19'0 0.0
2016-Feb-11 12:32N 37°48' W 122°19'0 0.0
2016-Feb-11 11:32N 37°48' W 122°19'1 1.5
2016-Feb-11 10:33N 37°48' W 122°21'9 8.8
2016-Feb-11 09:33N 37°48' W 122°32'10 9.8
2016-Feb-11 08:34N 37°40' W 122°40'10 9.6
2016-Feb-11 07:33N 37°31' W 122°40'10 9.8
2016-Feb-11 06:34N 37°21' W 122°40'10 9.8
2016-Feb-11 05:34N 37°11' W 122°40'10 9.8
2016-Feb-11 04:34N 37°02' W 122°35'1010.2
2016-Feb-11 03:34N 36°52' W 122°30'1111.0
2016-Feb-11 02:32N 36°42' W 122°25'1111.4
2016-Feb-11 01:33N 36°32' W 122°20'1111.4
2016-Feb-11 00:34N 36°21' W 122°14'1110.9
2016-Feb-10 23:34N 36°11' W 122°08'1111.0
2016-Feb-10 22:32N 36°02' W 122°01'1411.5
2016-Feb-10 21:20N 35°50' W 121°52'5511.5
2016-Feb-10 16:33N 35°03' W 121°18'1211.8
2016-Feb-10 15:33N 34°53' W 121°11'1212.1
2016-Feb-10 14:32N 34°42' W 121°03'1312.2
2016-Feb-10 13:30N 34°31' W 120°55'8612.2
2016-Feb-10 06:25N 34°04' W 119°16'1011.9
2016-Feb-10 05:32N 33°59' W 119°05'1111.6
2016-Feb-10 04:33N 33°54' W 118°53'1211.6
2016-Feb-10 03:33N 33°48' W 118°41'2211.0
2016-Feb-10 01:34N 33°38' W 118°17'8 8.1
2016-Feb-10 00:34N 33°44' W 118°11'1 0.7
2016-Feb-09 23:33N 33°44' W 118°12'0 0.0
2016-Feb-09 22:33N 33°44' W 118°12'0 0.0
2016-Feb-09 21:33N 33°44' W 118°12'0 0.0
2016-Feb-09 20:30N 33°44' W 118°12'0 0.0
2016-Feb-09 19:33N 33°44' W 118°12'0 0.0
2016-Feb-09 18:09N 33°44' W 118°12'0 0.0
2016-Feb-09 13:18N 33°44' W 118°12'0 0.0
2016-Feb-09 12:30N 33°44' W 118°12'0 0.0
2016-Feb-09 10:33N 33°44' W 118°12'0 0.0
2016-Feb-09 09:30N 33°44' W 118°12'0 0.0
2016-Feb-09 08:30N 33°44' W 118°12'0 0.0
2016-Feb-09 07:12N 33°44' W 118°12'0 0.0
2016-Feb-09 05:06N 33°44' W 118°12'0 0.0
2016-Feb-09 04:30N 33°44' W 118°12'0 0.0
2016-Feb-09 03:06N 33°44' W 118°12'0 0.0
2016-Feb-09 02:30N 33°44' W 118°12'0 0.0
2016-Feb-09 01:33N 33°44' W 118°12'0 0.0
2016-Feb-09 00:30N 33°44' W 118°12'0 0.0
2016-Feb-08 23:33N 33°44' W 118°12'0 0.0
2016-Feb-08 22:33N 33°44' W 118°12'0 0.0
2016-Feb-08 21:33N 33°44' W 118°12'0 0.0
2016-Feb-08 20:30N 33°44' W 118°12'0 0.0
2016-Feb-08 19:27N 33°44' W 118°12'0 0.0
2016-Feb-08 18:18N 33°44' W 118°12'0 0.0
2016-Feb-08 16:24N 33°44' W 118°12'0 0.0
2016-Feb-08 15:33N 33°44' W 118°12'0 0.0
2016-Feb-08 14:09N 33°44' W 118°12'0 0.0
2016-Feb-08 13:33N 33°44' W 118°12'0 0.0
2016-Feb-08 12:30N 33°44' W 118°12'0 0.0
2016-Feb-08 11:30N 33°44' W 118°12'0 0.0
2016-Feb-08 10:33N 33°44' W 118°12'0 0.0
2016-Feb-08 09:24N 33°44' W 118°12'0 0.0
2016-Feb-08 07:06N 33°44' W 118°12'0 0.0
2016-Feb-08 06:12N 33°44' W 118°12'0 0.0
2016-Feb-08 05:12N 33°44' W 118°12'0 0.0
2016-Feb-08 04:30N 33°44' W 118°12'0 0.0
2016-Feb-08 03:30N 33°44' W 118°12'0 0.0
2016-Feb-08 02:24N 33°44' W 118°12'0 0.0
2016-Feb-08 01:33N 33°44' W 118°12'0 0.0
2016-Feb-08 00:33N 33°44' W 118°12'0 0.0
2016-Feb-07 23:30N 33°44' W 118°12'0 0.0
2016-Feb-07 22:33N 33°44' W 118°12'0 0.0
2016-Feb-07 21:33N 33°44' W 118°12'0 0.0
2016-Feb-07 20:33N 33°44' W 118°12'0 0.0
2016-Feb-07 19:33N 33°44' W 118°12'0 0.0
2016-Feb-07 18:30N 33°44' W 118°12'0 0.0
2016-Feb-07 17:24N 33°44' W 118°12'0 0.0
2016-Feb-07 16:30N 33°44' W 118°12'0 0.0
2016-Feb-07 15:33N 33°44' W 118°12'0 0.0
2016-Feb-07 14:27N 33°44' W 118°12'0 0.0
2016-Feb-07 13:24N 33°44' W 118°12'0 0.0
2016-Feb-07 08:33N 33°44' W 118°12'0 0.0
2016-Feb-07 07:30N 33°44' W 118°12'0 0.0
2016-Feb-07 06:33N 33°44' W 118°12'0 0.0
2016-Feb-07 05:33N 33°44' W 118°12'0 0.0
2016-Feb-07 04:27N 33°44' W 118°12'0 0.0
2016-Feb-07 03:30N 33°44' W 118°12'0 0.0
2016-Feb-07 02:21N 33°44' W 118°12'0 0.0
2016-Feb-07 00:18N 33°44' W 118°12'0 0.0
2016-Feb-06 23:33N 33°44' W 118°12'0 0.0
2016-Feb-06 22:33N 33°44' W 118°12'0 0.0
2016-Feb-06 21:33N 33°44' W 118°12'0 0.0
2016-Feb-06 20:33N 33°44' W 118°12'0 0.0
2016-Feb-06 19:33N 33°44' W 118°12'0 0.0
2016-Feb-06 18:33N 33°44' W 118°12'0 0.0
2016-Feb-06 17:33N 33°44' W 118°12'0 0.0
2016-Feb-06 16:33N 33°44' W 118°12'0 0.0
2016-Feb-06 15:32N 33°44' W 118°12'0 0.0
2016-Feb-06 14:33N 33°44' W 118°12'0 0.0
2016-Feb-06 13:33N 33°44' W 118°12'0 0.0
2016-Feb-06 12:33N 33°44' W 118°12'0 0.0
2016-Feb-06 11:33N 33°44' W 118°12'0 0.0
2016-Feb-06 10:33N 33°44' W 118°12'0 0.0
2016-Feb-06 09:33N 33°44' W 118°12'0 0.0
2016-Feb-06 08:33N 33°44' W 118°12'0 0.0
2016-Feb-06 07:32N 33°44' W 118°12'0 0.0
2016-Feb-06 06:33N 33°44' W 118°12'0 0.0
2016-Feb-06 05:33N 33°44' W 118°12'0 0.0
2016-Feb-06 04:33N 33°44' W 118°12'0 0.0
2016-Feb-06 03:33N 33°44' W 118°12'0 0.0
2016-Feb-06 02:33N 33°44' W 118°12'0 0.0
2016-Feb-06 01:33N 33°44' W 118°12'0 0.0
2016-Feb-06 00:33N 33°44' W 118°12'0 0.0
2016-Feb-05 23:32N 33°44' W 118°12'0 0.0
2016-Feb-05 22:33N 33°44' W 118°12'0 0.0
2016-Feb-05 21:33N 33°44' W 118°12'0 0.0
2016-Feb-05 20:31N 33°44' W 118°12'0 0.0
2016-Feb-05 19:28N 33°44' W 118°12'0 0.0
2016-Feb-05 18:31N 33°44' W 118°12'0 0.0
2016-Feb-05 17:31N 33°44' W 118°12'0 0.0
2016-Feb-05 16:31N 33°44' W 118°12'0 0.0
2016-Feb-05 15:31N 33°44' W 118°12'0 0.0
2016-Feb-05 14:31N 33°44' W 118°12'0 0.0
2016-Feb-05 13:31N 33°44' W 118°12'1 0.6
2016-Feb-05 12:33N 33°44' W 118°11'6 6.1
2016-Feb-05 11:33N 33°38' W 118°12'1010.3
2016-Feb-05 10:33N 33°37' W 118°24'1211.5
2016-Feb-05 09:33N 33°43' W 118°36'10413.0
2016-Feb-05 01:33N 34°20' W 120°33'1313.0
2016-Feb-05 00:33N 34°22' W 120°49'1312.8
2016-Feb-04 23:33N 34°21' W 121°04'  
Track history (hours):
 
Tides and Currents Weather Stations Pressure Air Temp Water Temp Dewpoint Dewpoint Depression Visibility Wind Speed Wind Dir Waves Ship Positions

CMA CGM Columba

Last reported at 2016-Feb-12 21:33 UTC. Time now 2016-Feb-12 22:27 UTC.
Position N 37°48' W 122°18'.

Length 363 m; draft 12 m.

Type: Ship (hazmat cat A). MMSI: 235077448.

Date/timePositionNaut miles runAvg speedWind from/ knotsBaromVisibWave heightAir tempDewpointWater temp
2016-Feb-12 21:33N 37°48' W 122°18'1 1.2
2016-Feb-12 20:26N 37°48' W 122°19'0 0.0
2016-Feb-12 19:29N 37°48' W 122°19'0 0.0
2016-Feb-12 18:32N 37°48' W 122°19'0 0.0
2016-Feb-12 17:32N 37°48' W 122°19'0 0.0
2016-Feb-12 16:26N 37°48' W 122°19'0 0.1
2016-Feb-12 15:32N 37°48' W 122°19'0 0.0
2016-Feb-12 14:32N 37°48' W 122°19'0 0.0
2016-Feb-12 13:32N 37°48' W 122°19'0 0.0
2016-Feb-12 12:32N 37°48' W 122°19'0 0.0
2016-Feb-12 11:32N 37°48' W 122°19'0 0.0
2016-Feb-12 10:32N 37°48' W 122°19'0 0.0
2016-Feb-12 09:32N 37°48' W 122°19'0 0.0
2016-Feb-12 08:32N 37°48' W 122°19'0 0.0
2016-Feb-12 07:32N 37°48' W 122°19'0 0.0
2016-Feb-12 06:32N 37°48' W 122°19'0 0.0
2016-Feb-12 05:32N 37°48' W 122°19'0 0.0
2016-Feb-12 04:32N 37°48' W 122°19'0 0.0
2016-Feb-12 03:32N 37°48' W 122°19'0 0.0
2016-Feb-12 02:32N 37°48' W 122°19'0 0.0
2016-Feb-12 01:32N 37°48' W 122°19'0 0.0
2016-Feb-12 00:32N 37°48' W 122°19'0 0.0
2016-Feb-11 23:32N 37°48' W 122°19'0 0.0
2016-Feb-11 22:32N 37°48' W 122°19'0 0.0
2016-Feb-11 21:32N 37°48' W 122°19'0 0.0
2016-Feb-11 20:32N 37°48' W 122°19'0 0.0
2016-Feb-11 19:32N 37°48' W 122°19'0 0.0
2016-Feb-11 18:32N 37°48' W 122°19'0 0.0
2016-Feb-11 17:17N 37°48' W 122°19'0 0.0
2016-Feb-11 16:26N 37°48' W 122°19'0 0.0
2016-Feb-11 15:32N 37°48' W 122°19'0 0.0
2016-Feb-11 14:32N 37°48' W 122°19'0 0.0
2016-Feb-11 13:32N 37°48' W 122°19'0 0.0
2016-Feb-11 12:32N 37°48' W 122°19'0 0.0
2016-Feb-11 11:32N 37°48' W 122°19'1 1.5
2016-Feb-11 10:33N 37°48' W 122°21'9 8.8
2016-Feb-11 09:33N 37°48' W 122°32'10 9.8
2016-Feb-11 08:34N 37°40' W 122°40'10 9.6
2016-Feb-11 07:33N 37°31' W 122°40'10 9.8
2016-Feb-11 06:34N 37°21' W 122°40'10 9.8
2016-Feb-11 05:34N 37°11' W 122°40'10 9.8
2016-Feb-11 04:34N 37°02' W 122°35'1010.2
2016-Feb-11 03:34N 36°52' W 122°30'1111.0
2016-Feb-11 02:32N 36°42' W 122°25'1111.4
2016-Feb-11 01:33N 36°32' W 122°20'1111.4
2016-Feb-11 00:34N 36°21' W 122°14'1110.9
2016-Feb-10 23:34N 36°11' W 122°08'1111.0
2016-Feb-10 22:32N 36°02' W 122°01'1411.5
2016-Feb-10 21:20N 35°50' W 121°52'5511.5
2016-Feb-10 16:33N 35°03' W 121°18'1211.8
2016-Feb-10 15:33N 34°53' W 121°11'1212.1
2016-Feb-10 14:32N 34°42' W 121°03'1312.2
2016-Feb-10 13:30N 34°31' W 120°55'8612.2
2016-Feb-10 06:25N 34°04' W 119°16'1011.9
2016-Feb-10 05:32N 33°59' W 119°05'1111.6
2016-Feb-10 04:33N 33°54' W 118°53'1211.6
2016-Feb-10 03:33N 33°48' W 118°41'2211.0
2016-Feb-10 01:34N 33°38' W 118°17'8 8.1
2016-Feb-10 00:34N 33°44' W 118°11'1 0.7
2016-Feb-09 23:33N 33°44' W 118°12'0 0.0
2016-Feb-09 22:33N 33°44' W 118°12'0 0.0
2016-Feb-09 21:33N 33°44' W 118°12'0 0.0
2016-Feb-09 20:30N 33°44' W 118°12'0 0.0
2016-Feb-09 19:33N 33°44' W 118°12'0 0.0
2016-Feb-09 18:09N 33°44' W 118°12'0 0.0
2016-Feb-09 13:18N 33°44' W 118°12'0 0.0
2016-Feb-09 12:30N 33°44' W 118°12'0 0.0
2016-Feb-09 10:33N 33°44' W 118°12'0 0.0
2016-Feb-09 09:30N 33°44' W 118°12'0 0.0
2016-Feb-09 08:30N 33°44' W 118°12'0 0.0
2016-Feb-09 07:12N 33°44' W 118°12'0 0.0
2016-Feb-09 05:06N 33°44' W 118°12'0 0.0
2016-Feb-09 04:30N 33°44' W 118°12'0 0.0
2016-Feb-09 03:06N 33°44' W 118°12'0 0.0
2016-Feb-09 02:30N 33°44' W 118°12'0 0.0
2016-Feb-09 01:33N 33°44' W 118°12'0 0.0
2016-Feb-09 00:30N 33°44' W 118°12'0 0.0
2016-Feb-08 23:33N 33°44' W 118°12'0 0.0
2016-Feb-08 22:33N 33°44' W 118°12'0 0.0
2016-Feb-08 21:33N 33°44' W 118°12'0 0.0
2016-Feb-08 20:30N 33°44' W 118°12'0 0.0
2016-Feb-08 19:27N 33°44' W 118°12'0 0.0
2016-Feb-08 18:18N 33°44' W 118°12'0 0.0
2016-Feb-08 16:24N 33°44' W 118°12'0 0.0
2016-Feb-08 15:33N 33°44' W 118°12'0 0.0
2016-Feb-08 14:09N 33°44' W 118°12'0 0.0
2016-Feb-08 13:33N 33°44' W 118°12'0 0.0
2016-Feb-08 12:30N 33°44' W 118°12'0 0.0
2016-Feb-08 11:30N 33°44' W 118°12'0 0.0
2016-Feb-08 10:33N 33°44' W 118°12'0 0.0
2016-Feb-08 09:24N 33°44' W 118°12'0 0.0
2016-Feb-08 07:06N 33°44' W 118°12'0 0.0
2016-Feb-08 06:12N 33°44' W 118°12'0 0.0
2016-Feb-08 05:12N 33°44' W 118°12'0 0.0
2016-Feb-08 04:30N 33°44' W 118°12'0 0.0
2016-Feb-08 03:30N 33°44' W 118°12'0 0.0
2016-Feb-08 02:24N 33°44' W 118°12'0 0.0
2016-Feb-08 01:33N 33°44' W 118°12'0 0.0
2016-Feb-08 00:33N 33°44' W 118°12'0 0.0
2016-Feb-07 23:30N 33°44' W 118°12'0 0.0
2016-Feb-07 22:33N 33°44' W 118°12'0 0.0
2016-Feb-07 21:33N 33°44' W 118°12'0 0.0
2016-Feb-07 20:33N 33°44' W 118°12'0 0.0
2016-Feb-07 19:33N 33°44' W 118°12'0 0.0
2016-Feb-07 18:30N 33°44' W 118°12'0 0.0
2016-Feb-07 17:24N 33°44' W 118°12'0 0.0
2016-Feb-07 16:30N 33°44' W 118°12'0 0.0
2016-Feb-07 15:33N 33°44' W 118°12'0 0.0
2016-Feb-07 14:27N 33°44' W 118°12'0 0.0
2016-Feb-07 13:24N 33°44' W 118°12'0 0.0
2016-Feb-07 08:33N 33°44' W 118°12'0 0.0
2016-Feb-07 07:30N 33°44' W 118°12'0 0.0
2016-Feb-07 06:33N 33°44' W 118°12'0 0.0
2016-Feb-07 05:33N 33°44' W 118°12'0 0.0
2016-Feb-07 04:27N 33°44' W 118°12'0 0.0
2016-Feb-07 03:30N 33°44' W 118°12'0 0.0
2016-Feb-07 02:21N 33°44' W 118°12'0 0.0
2016-Feb-07 00:18N 33°44' W 118°12'0 0.0
2016-Feb-06 23:33N 33°44' W 118°12'0 0.0
2016-Feb-06 22:33N 33°44' W 118°12'0 0.0
2016-Feb-06 21:33N 33°44' W 118°12'0 0.0
2016-Feb-06 20:33N 33°44' W 118°12'0 0.0
2016-Feb-06 19:33N 33°44' W 118°12'0 0.0
2016-Feb-06 18:33N 33°44' W 118°12'0 0.0
2016-Feb-06 17:33N 33°44' W 118°12'0 0.0
2016-Feb-06 16:33N 33°44' W 118°12'0 0.0
2016-Feb-06 15:32N 33°44' W 118°12'0 0.0
2016-Feb-06 14:33N 33°44' W 118°12'0 0.0
2016-Feb-06 13:33N 33°44' W 118°12'0 0.0
2016-Feb-06 12:33N 33°44' W 118°12'0 0.0
2016-Feb-06 11:33N 33°44' W 118°12'0 0.0
2016-Feb-06 10:33N 33°44' W 118°12'0 0.0
2016-Feb-06 09:33N 33°44' W 118°12'0 0.0
2016-Feb-06 08:33N 33°44' W 118°12'0 0.0
2016-Feb-06 07:32N 33°44' W 118°12'0 0.0
2016-Feb-06 06:33N 33°44' W 118°12'0 0.0
2016-Feb-06 05:33N 33°44' W 118°12'0 0.0
2016-Feb-06 04:33N 33°44' W 118°12'0 0.0
2016-Feb-06 03:33N 33°44' W 118°12'0 0.0
2016-Feb-06 02:33N 33°44' W 118°12'0 0.0
2016-Feb-06 01:33N 33°44' W 118°12'0 0.0
2016-Feb-06 00:33N 33°44' W 118°12'0 0.0
2016-Feb-05 23:32N 33°44' W 118°12'0 0.0
2016-Feb-05 22:33N 33°44' W 118°12'0 0.0
2016-Feb-05 21:33N 33°44' W 118°12'0 0.0
2016-Feb-05 20:31N 33°44' W 118°12'0 0.0
2016-Feb-05 19:28N 33°44' W 118°12'0 0.0
2016-Feb-05 18:31N 33°44' W 118°12'0 0.0
2016-Feb-05 17:31N 33°44' W 118°12'0 0.0
2016-Feb-05 16:31N 33°44' W 118°12'0 0.0
2016-Feb-05 15:31N 33°44' W 118°12'0 0.0
2016-Feb-05 14:31N 33°44' W 118°12'0 0.0
2016-Feb-05 13:31N 33°44' W 118°12'1 0.6
2016-Feb-05 12:33N 33°44' W 118°11'6 6.1
2016-Feb-05 11:33N 33°38' W 118°12'1010.3
2016-Feb-05 10:33N 33°37' W 118°24'1211.5
2016-Feb-05 09:33N 33°43' W 118°36'10413.0
2016-Feb-05 01:33N 34°20' W 120°33'1313.0
2016-Feb-05 00:33N 34°22' W 120°49'1312.8
2016-Feb-04 23:33N 34°21' W 121°04'  

Dump ship's entire track history